createdAt,value
2017-10-09T00:01:05.913Z,5.60
2017-10-09T00:03:33.340Z,4.90
2017-10-09T00:06:00.746Z,4.87
2017-10-09T00:08:28.188Z,5.33
2017-10-09T00:10:55.602Z,5.00
2017-10-09T00:13:23.040Z,5.70
2017-10-09T00:15:50.429Z,6.00
2017-10-09T00:18:17.860Z,6.00
2017-10-09T00:20:45.330Z,5.70
2017-10-09T00:23:12.727Z,5.50
2017-10-09T00:25:40.170Z,5.70
2017-10-09T00:28:07.565Z,5.80
2017-10-09T00:30:34.980Z,4.97
2017-10-09T00:33:02.368Z,5.50
2017-10-09T00:35:29.797Z,5.73
2017-10-09T00:37:57.208Z,5.13
2017-10-09T00:40:24.609Z,5.90
2017-10-09T00:42:52.032Z,6.00
2017-10-09T00:45:19.437Z,6.90
2017-10-09T00:47:46.871Z,6.17
2017-10-09T00:50:14.256Z,6.20
2017-10-09T00:52:41.699Z,5.50
2017-10-09T00:55:09.115Z,6.00
2017-10-09T00:57:36.525Z,6.20
2017-10-09T01:00:03.930Z,5.43
2017-10-09T01:02:31.352Z,5.93
2017-10-09T01:04:58.772Z,6.23
2017-10-09T01:07:26.209Z,5.90
2017-10-09T01:09:53.663Z,6.27
2017-10-09T01:12:21.058Z,6.50
2017-10-09T01:14:48.489Z,6.00
2017-10-09T01:17:15.884Z,6.53
2017-10-09T01:19:43.324Z,7.00
2017-10-09T01:22:10.725Z,6.50
2017-10-09T01:24:38.172Z,6.30
2017-10-09T01:27:05.581Z,6.77
2017-10-09T01:29:32.995Z,6.17
2017-10-09T01:32:00.414Z,6.33
2017-10-09T01:34:27.848Z,7.33
2017-10-09T01:36:55.294Z,8.63
2017-10-09T01:39:22.694Z,6.20
2017-10-09T01:41:50.122Z,5.67
2017-10-09T01:44:17.532Z,6.70
2017-10-09T01:46:44.952Z,6.63
2017-10-09T01:49:13.464Z,6.40
2017-10-09T01:51:40.861Z,6.10
2017-10-09T01:54:08.291Z,6.20
2017-10-09T01:56:35.694Z,6.63
2017-10-09T01:59:03.126Z,6.63
2017-10-09T02:01:30.534Z,6.30
2017-10-09T02:03:57.953Z,6.60
2017-10-09T02:06:25.680Z,6.70
2017-10-09T02:08:53.182Z,6.10
2017-10-09T02:11:20.573Z,5.90
2017-10-09T02:13:47.971Z,6.03
2017-10-09T02:16:15.427Z,6.43
2017-10-09T02:18:42.823Z,6.60
2017-10-09T02:21:10.248Z,6.60
2017-10-09T02:23:37.657Z,6.50
2017-10-09T02:26:05.095Z,6.10
2017-10-09T02:28:32.504Z,6.10
2017-10-09T02:30:59.949Z,6.80
2017-10-09T02:33:27.344Z,6.63
2017-10-09T02:35:54.785Z,6.60
2017-10-09T02:38:22.218Z,6.10
2017-10-09T02:40:49.623Z,6.90
2017-10-09T02:43:17.041Z,6.13
2017-10-09T02:45:44.448Z,6.20
2017-10-09T02:48:11.872Z,6.40
2017-10-09T02:50:39.611Z,6.47
2017-10-09T02:53:11.478Z,6.20
2017-10-09T02:55:38.957Z,6.13
2017-10-09T02:58:06.361Z,6.90
2017-10-09T03:00:33.797Z,6.40
2017-10-09T03:03:01.206Z,6.93
2017-10-09T03:05:28.642Z,7.23
2017-10-09T03:07:56.083Z,6.97
2017-10-09T03:10:23.497Z,7.43
2017-10-09T03:12:50.934Z,6.23
2017-10-09T03:15:18.347Z,6.90
2017-10-09T03:17:45.776Z,6.53
2017-10-09T03:20:13.197Z,7.33
2017-10-09T03:22:42.332Z,7.23
2017-10-09T03:25:14.146Z,7.43
2017-10-09T03:27:42.960Z,7.67
2017-10-09T03:30:11.264Z,7.50
2017-10-09T03:32:38.684Z,8.00
2017-10-09T03:35:06.122Z,7.67
2017-10-09T03:37:33.549Z,6.90
2017-10-09T03:40:00.961Z,7.47
2017-10-09T03:42:28.377Z,7.27
2017-10-09T03:44:55.801Z,6.90
2017-10-09T03:47:23.207Z,6.40
2017-10-09T03:49:50.647Z,7.07
2017-10-09T03:52:18.031Z,7.20
2017-10-09T03:54:45.468Z,6.70
2017-10-09T03:57:12.852Z,6.97
2017-10-09T03:59:40.280Z,6.87
2017-10-09T04:02:07.673Z,6.83
2017-10-09T04:04:35.107Z,6.43
2017-10-09T04:07:02.528Z,6.60
2017-10-09T04:09:29.924Z,6.00
2017-10-09T04:11:57.357Z,6.47
2017-10-09T04:14:24.753Z,6.63
2017-10-09T04:16:52.177Z,6.80
2017-10-09T04:19:19.575Z,7.57
2017-10-09T04:21:46.999Z,6.80
2017-10-09T04:24:14.395Z,7.20
2017-10-09T04:26:41.824Z,7.10
2017-10-09T04:29:09.820Z,7.27
2017-10-09T04:31:37.851Z,6.83
2017-10-09T04:34:06.439Z,6.90
2017-10-09T04:36:33.843Z,6.77
2017-10-09T04:39:01.281Z,7.60
2017-10-09T04:41:28.705Z,6.57
2017-10-09T04:43:56.142Z,6.40
2017-10-09T04:46:23.547Z,7.20
2017-10-09T04:48:50.964Z,7.40
2017-10-09T04:51:18.389Z,6.90
2017-10-09T04:53:45.870Z,7.07
2017-10-09T04:56:13.269Z,6.53
2017-10-09T04:58:40.713Z,7.77
2017-10-09T05:01:08.136Z,6.83
2017-10-09T05:03:35.536Z,7.30
2017-10-09T05:06:02.957Z,7.60
2017-10-09T05:08:30.405Z,7.13
2017-10-09T05:10:57.828Z,6.47
2017-10-09T05:13:25.255Z,7.40
2017-10-09T05:15:52.685Z,7.40
2017-10-09T05:18:20.104Z,7.90
2017-10-09T05:20:47.556Z,7.03
2017-10-09T05:23:15.145Z,7.40
2017-10-09T05:25:42.584Z,7.47
2017-10-09T05:28:10.037Z,7.93
2017-10-09T05:30:37.909Z,7.47
2017-10-09T05:33:05.317Z,7.20
2017-10-09T05:35:32.789Z,6.47
2017-10-09T05:38:00.208Z,6.03
2017-10-09T05:40:27.658Z,5.50
2017-10-09T05:42:55.091Z,5.73
2017-10-09T05:45:22.506Z,6.00
2017-10-09T05:47:50.004Z,7.90
2017-10-09T05:50:17.561Z,7.57
2017-10-09T05:52:44.960Z,7.00
2017-10-09T05:55:12.382Z,6.60
2017-10-09T05:57:39.870Z,6.10
2017-10-09T06:00:09.105Z,6.23
2017-10-09T06:02:37.063Z,7.60
2017-10-09T06:05:05.194Z,6.70
2017-10-09T06:07:32.649Z,10.30
2017-10-09T06:10:00.070Z,9.40
2017-10-09T06:12:27.504Z,9.37
2017-10-09T06:14:54.980Z,9.40
2017-10-09T06:17:22.867Z,8.33
2017-10-09T06:19:50.264Z,9.60
2017-10-09T06:22:17.764Z,8.47
2017-10-09T06:24:45.176Z,8.77
2017-10-09T06:27:12.613Z,8.10
2017-10-09T06:29:40.038Z,8.97
2017-10-09T06:32:07.455Z,8.73
2017-10-09T06:34:34.884Z,9.10
2017-10-09T06:37:02.372Z,8.60
2017-10-09T06:39:29.791Z,7.33
2017-10-09T06:41:57.212Z,7.80
2017-10-09T06:44:24.651Z,7.63
2017-10-09T06:46:52.087Z,9.13
2017-10-09T06:49:20.440Z,9.10
2017-10-09T06:51:47.842Z,9.57
2017-10-09T06:54:15.872Z,10.73
2017-10-09T06:56:43.344Z,9.00
2017-10-09T06:59:10.886Z,8.80
2017-10-09T07:01:38.368Z,8.00
2017-10-09T07:04:05.794Z,7.50
2017-10-09T07:06:33.264Z,8.70
2017-10-09T07:09:00.688Z,9.67
2017-10-09T07:11:28.700Z,7.63
2017-10-09T07:13:56.445Z,7.67
2017-10-09T07:16:23.917Z,8.13
2017-10-09T07:18:51.365Z,8.00
2017-10-09T07:21:18.961Z,8.17
2017-10-09T07:23:46.420Z,8.70
2017-10-09T07:26:13.896Z,8.27
2017-10-09T07:28:41.393Z,7.93
2017-10-09T07:31:08.794Z,7.40
2017-10-09T07:33:36.225Z,8.27
2017-10-09T07:36:03.699Z,8.87
2017-10-09T07:38:31.141Z,16.80
2017-10-09T07:40:59.570Z,8.37
2017-10-09T07:43:27.000Z,8.30
2017-10-09T07:45:54.445Z,11.80
2017-10-09T07:48:21.937Z,9.00
2017-10-09T07:50:49.346Z,8.80
2017-10-09T07:53:16.777Z,9.77
2017-10-09T07:55:44.231Z,9.03
2017-10-09T07:58:11.619Z,10.50
2017-10-09T08:00:39.057Z,7.97
2017-10-09T08:03:06.493Z,9.30
2017-10-09T08:05:33.926Z,9.13
2017-10-09T08:08:01.400Z,9.10
2017-10-09T08:10:28.843Z,9.17
2017-10-09T08:12:56.277Z,9.60
2017-10-09T08:15:24.522Z,10.67
2017-10-09T08:17:52.036Z,11.00
2017-10-09T08:20:19.485Z,12.30
2017-10-09T08:22:46.957Z,13.20
2017-10-09T08:25:14.405Z,11.10
2017-10-09T08:27:41.829Z,11.80
2017-10-09T08:30:09.864Z,11.00
2017-10-09T08:32:37.311Z,9.77
2017-10-09T08:35:04.750Z,10.47
2017-10-09T08:37:32.220Z,14.73
2017-10-09T08:45:05.276Z,9.80
2017-10-09T08:47:32.765Z,9.73
2017-10-09T08:50:00.262Z,9.13
2017-10-09T08:52:27.716Z,10.17
2017-10-09T08:54:55.212Z,11.73
2017-10-09T08:57:22.689Z,10.20
2017-10-09T09:02:25.975Z,9.30
2017-10-09T09:07:26.369Z,8.07
2017-10-09T09:14:59.303Z,7.43
2017-10-09T09:22:32.368Z,7.13
2017-10-09T09:27:32.567Z,6.73
2017-10-09T09:30:00.115Z,6.40
2017-10-09T09:32:27.636Z,6.13
2017-10-09T09:40:00.707Z,4.80
2017-10-09T09:42:28.198Z,4.87
2017-10-09T09:44:55.694Z,5.60
2017-10-09T09:47:23.182Z,5.93
2017-10-09T09:49:50.636Z,5.67
2017-10-09T09:52:18.125Z,5.30
2017-10-09T09:54:45.597Z,5.53
2017-10-09T09:57:13.089Z,5.10
2017-10-09T09:59:41.440Z,5.30
2017-10-09T10:04:42.568Z,5.60
2017-10-09T10:07:10.026Z,5.90
2017-10-09T10:09:37.447Z,5.60
2017-10-09T10:12:04.848Z,5.60
2017-10-09T10:14:32.283Z,6.17
2017-10-09T10:16:59.696Z,5.37
2017-10-09T10:19:27.159Z,7.70
2017-10-09T10:21:54.555Z,4.83
2017-10-09T10:24:22.021Z,5.50
2017-10-09T10:26:49.420Z,5.60
2017-10-09T10:29:16.845Z,6.13
2017-10-09T10:31:44.274Z,5.87
2017-10-09T10:34:11.772Z,5.37
2017-10-09T10:36:39.184Z,4.70
2017-10-09T10:39:06.596Z,4.70
2017-10-09T10:41:34.027Z,4.27
2017-10-09T10:44:01.774Z,4.23
2017-10-09T10:46:30.401Z,4.10
2017-10-09T10:48:57.809Z,4.93
2017-10-09T10:51:25.249Z,4.30
2017-10-09T10:53:52.698Z,8.77
2017-10-09T10:56:20.153Z,4.80
2017-10-09T10:58:47.538Z,6.60
2017-10-09T11:01:14.976Z,4.47
2017-10-09T11:03:42.391Z,4.93
2017-10-09T11:06:09.895Z,5.40
2017-10-09T11:08:37.339Z,4.67
2017-10-09T11:11:04.779Z,3.53
2017-10-09T11:13:32.233Z,4.37
2017-10-09T11:15:59.734Z,4.13
2017-10-09T11:18:27.160Z,4.07
2017-10-09T11:20:54.569Z,3.47
2017-10-09T11:23:22.681Z,4.33
2017-10-09T11:25:50.129Z,6.73
2017-10-09T11:28:17.537Z,9.37
2017-10-09T11:30:44.969Z,6.97
2017-10-09T11:33:12.379Z,3.80
2017-10-09T11:35:39.833Z,5.50
2017-10-09T11:38:07.622Z,3.90
2017-10-09T11:40:35.072Z,4.90
2017-10-09T11:43:02.476Z,3.27
2017-10-09T11:45:29.910Z,3.00
2017-10-09T11:47:57.472Z,2.93
2017-10-09T11:50:24.957Z,3.30
2017-10-09T11:52:52.355Z,3.13
2017-10-09T11:55:19.781Z,3.37
2017-10-09T11:57:48.012Z,3.50
2017-10-09T12:00:15.399Z,4.17
2017-10-09T12:02:42.852Z,3.33
2017-10-09T12:05:10.276Z,4.20
2017-10-09T12:07:37.734Z,3.80
2017-10-09T12:10:05.156Z,3.10
2017-10-09T12:12:32.584Z,3.90
2017-10-09T12:15:00.115Z,3.50
2017-10-09T12:17:27.549Z,3.60
2017-10-09T12:19:54.945Z,3.53
2017-10-09T12:22:22.429Z,4.17
2017-10-09T12:24:49.844Z,4.10
2017-10-09T12:27:17.295Z,4.50
2017-10-09T12:29:44.710Z,3.47
2017-10-09T12:32:12.178Z,3.80
2017-10-09T12:34:39.637Z,3.67
2017-10-09T12:37:07.050Z,3.70
2017-10-09T12:39:34.472Z,2.77
2017-10-09T12:42:01.930Z,3.40
2017-10-09T12:44:29.333Z,3.50
2017-10-09T12:46:57.544Z,3.40
2017-10-09T12:49:25.272Z,3.00
2017-10-09T12:51:52.680Z,2.57
2017-10-09T12:54:20.138Z,3.13
2017-10-09T12:56:47.584Z,2.77
2017-10-09T12:59:14.989Z,2.90
2017-10-09T13:01:42.386Z,3.30
2017-10-09T13:04:09.861Z,2.87
2017-10-09T13:06:37.348Z,3.43
2017-10-09T13:09:04.817Z,3.10
2017-10-09T13:11:32.279Z,2.77
2017-10-09T13:13:59.696Z,3.30
2017-10-09T13:16:27.136Z,2.97
2017-10-09T13:18:55.185Z,2.53
2017-10-09T13:21:22.590Z,2.60
2017-10-09T13:23:50.106Z,2.80
2017-10-09T13:26:17.600Z,2.70
2017-10-09T13:28:45.022Z,2.63
2017-10-09T13:31:12.462Z,2.77
2017-10-09T13:33:39.868Z,2.70
2017-10-09T13:36:07.289Z,2.60
2017-10-09T13:38:34.775Z,2.57
2017-10-09T13:41:02.242Z,2.67
2017-10-09T13:43:29.674Z,2.40
2017-10-09T13:51:02.680Z,2.70
2017-10-09T13:53:30.169Z,2.57
2017-10-09T13:58:30.462Z,2.57
2017-10-09T14:03:30.768Z,3.10
2017-10-09T14:18:44.000Z,4.00
2017-10-09T14:21:11.508Z,3.33
2017-10-09T14:23:38.990Z,4.43
2017-10-09T14:28:39.162Z,3.80
2017-10-09T14:31:06.773Z,4.30
2017-10-09T14:40:57.018Z,4.40
2017-10-09T14:43:24.554Z,4.97
2017-10-09T14:45:52.064Z,4.60
2017-10-09T14:48:19.584Z,3.90
2017-10-09T14:50:47.115Z,4.90
2017-10-09T14:53:14.637Z,6.20
2017-10-09T14:55:42.089Z,5.00
2017-10-09T14:58:09.568Z,5.10
2017-10-09T15:00:37.098Z,5.30
2017-10-09T15:03:04.619Z,5.07
2017-10-09T15:05:32.139Z,4.90
2017-10-09T15:07:59.611Z,5.10
2017-10-09T15:10:27.126Z,5.60
2017-10-09T15:12:54.581Z,5.63
2017-10-09T15:15:22.082Z,5.67
2017-10-09T15:17:49.533Z,6.47
2017-10-09T15:20:17.022Z,5.70
2017-10-09T15:22:44.514Z,6.00
2017-10-09T15:25:12.061Z,6.10
2017-10-09T15:27:39.546Z,5.50
2017-10-09T15:30:07.113Z,6.50
2017-10-09T15:32:34.647Z,6.10
2017-10-09T15:35:02.175Z,6.03
2017-10-09T15:37:29.686Z,5.30
2017-10-09T15:39:57.142Z,5.50
2017-10-09T15:42:24.619Z,5.60
2017-10-09T15:44:52.099Z,5.70
2017-10-09T15:47:19.556Z,6.07
2017-10-09T15:49:47.053Z,5.80
2017-10-09T15:52:14.514Z,5.67
2017-10-09T15:54:42.155Z,5.87
2017-10-09T15:57:09.601Z,5.70
2017-10-09T15:59:37.066Z,5.73
2017-10-09T16:02:04.612Z,5.97
2017-10-09T16:04:32.105Z,5.93
2017-10-09T16:06:59.705Z,5.87
2017-10-09T16:09:27.212Z,6.00
2017-10-09T16:11:54.671Z,5.80
2017-10-09T16:14:22.194Z,6.60
2017-10-09T16:16:49.686Z,5.80
2017-10-09T16:19:17.163Z,5.80
2017-10-09T16:21:44.655Z,6.13
2017-10-09T16:24:12.163Z,5.20
2017-10-09T16:26:39.638Z,5.13
2017-10-09T16:29:07.158Z,5.47
2017-10-09T16:31:34.712Z,5.10
2017-10-09T16:34:02.241Z,4.67
2017-10-09T16:36:29.822Z,5.10
2017-10-09T16:38:57.293Z,4.90
2017-10-09T16:41:25.020Z,5.23
2017-10-09T16:43:52.758Z,4.97
2017-10-09T16:46:20.291Z,4.80
2017-10-09T16:48:47.759Z,4.77
2017-10-09T16:51:15.289Z,5.30
2017-10-09T16:53:42.748Z,5.50
2017-10-09T16:56:10.248Z,5.80
2017-10-09T16:58:37.762Z,5.57
2017-10-09T17:01:05.239Z,5.03
2017-10-09T17:03:32.702Z,5.47
2017-10-09T17:06:00.230Z,5.90
2017-10-09T17:08:27.706Z,5.87
2017-10-09T17:10:55.201Z,6.40
2017-10-09T17:13:22.697Z,6.83
2017-10-09T17:15:50.166Z,6.47
2017-10-09T17:18:17.650Z,6.83
2017-10-09T17:20:45.138Z,6.67
2017-10-09T17:23:12.637Z,6.03
2017-10-09T17:25:40.095Z,5.83
2017-10-09T17:28:07.630Z,5.77
2017-10-09T17:30:35.122Z,6.20
2017-10-09T17:33:02.574Z,6.57
2017-10-09T17:35:30.093Z,7.53
2017-10-09T17:37:57.596Z,7.00
2017-10-09T17:40:25.093Z,6.40
2017-10-09T17:42:52.572Z,6.30
2017-10-09T17:45:20.058Z,6.73
2017-10-09T17:47:47.517Z,6.60
2017-10-09T17:50:15.001Z,6.43
2017-10-09T17:52:42.483Z,6.20
2017-10-09T17:55:09.958Z,6.40
2017-10-09T17:57:37.454Z,6.10
2017-10-09T18:00:04.922Z,6.90
2017-10-09T18:02:32.431Z,5.93
2017-10-09T18:05:00.138Z,6.70
2017-10-09T18:07:27.630Z,7.10
2017-10-09T18:09:55.090Z,5.80
2017-10-09T18:12:22.602Z,6.60
2017-10-09T18:14:50.561Z,6.50
2017-10-09T18:17:18.067Z,6.10
2017-10-09T18:19:45.564Z,6.17
2017-10-09T18:22:13.025Z,6.53
2017-10-09T18:24:40.490Z,6.20
2017-10-09T18:27:07.960Z,6.87
2017-10-09T18:29:35.476Z,6.10
2017-10-09T18:32:02.920Z,6.43
2017-10-09T18:34:30.423Z,6.77
2017-10-09T18:36:57.869Z,7.00
2017-10-09T18:39:25.583Z,6.17
2017-10-09T18:41:53.033Z,7.03
2017-10-09T18:44:20.521Z,8.10
2017-10-09T18:46:47.982Z,5.93
2017-10-09T18:49:15.468Z,7.53
2017-10-09T18:51:42.950Z,6.80
2017-10-09T18:54:10.447Z,6.80
2017-10-09T18:56:37.930Z,7.13
2017-10-09T18:59:05.370Z,6.27
2017-10-09T19:01:32.898Z,7.50
2017-10-09T19:04:00.361Z,6.63
2017-10-09T19:06:27.829Z,6.77
2017-10-09T19:08:55.318Z,6.50
2017-10-09T19:11:22.778Z,6.47
2017-10-09T19:13:50.313Z,6.40
2017-10-09T19:16:17.785Z,6.37
2017-10-09T19:18:45.251Z,6.27
2017-10-09T19:21:12.733Z,6.57
2017-10-09T19:23:40.197Z,5.40
2017-10-09T19:26:07.669Z,6.03
2017-10-09T19:28:35.128Z,6.80
2017-10-09T19:31:02.643Z,7.00
2017-10-09T19:33:30.171Z,6.97
2017-10-09T19:35:57.674Z,7.07
2017-10-09T19:38:25.214Z,8.00
2017-10-09T19:40:52.689Z,8.50
2017-10-09T19:43:20.232Z,8.40
2017-10-09T19:45:47.707Z,8.67
2017-10-09T19:48:15.192Z,8.40
2017-10-09T19:50:42.648Z,8.37
2017-10-09T19:53:10.154Z,9.10
2017-10-09T19:55:37.632Z,9.10
2017-10-09T19:58:05.149Z,8.37
2017-10-09T20:00:32.636Z,7.70
2017-10-09T20:03:00.103Z,8.00
2017-10-09T20:05:27.589Z,9.73
2017-10-09T20:07:55.210Z,9.37
2017-10-09T20:10:22.742Z,9.87
2017-10-09T20:12:50.349Z,10.70
2017-10-09T20:15:17.841Z,10.00
2017-10-09T20:17:46.503Z,10.27
2017-10-09T20:20:14.077Z,8.80
2017-10-09T20:22:41.568Z,8.93
2017-10-09T20:25:09.101Z,8.90
2017-10-09T20:27:36.883Z,7.27
2017-10-09T20:30:04.403Z,6.70
2017-10-09T20:32:31.892Z,7.77
2017-10-09T20:34:59.420Z,6.83
2017-10-09T20:37:27.746Z,6.43
2017-10-09T20:39:55.212Z,8.33
2017-10-09T20:42:22.689Z,8.60
2017-10-09T20:44:50.140Z,8.37
2017-10-09T20:47:17.654Z,8.50
2017-10-09T20:49:45.106Z,7.67
2017-10-09T20:52:12.608Z,8.20
2017-10-09T20:54:40.074Z,8.03
2017-10-09T20:57:07.525Z,8.63
2017-10-09T20:59:35.006Z,7.43
2017-10-09T21:02:02.470Z,8.13
2017-10-09T21:04:29.976Z,7.80
2017-10-09T21:06:57.445Z,8.13
2017-10-09T21:09:24.220Z,7.30
2017-10-09T21:11:51.693Z,7.43
2017-10-09T21:14:19.181Z,7.30
2017-10-09T21:16:46.630Z,8.00
2017-10-09T21:19:14.068Z,7.67
2017-10-09T21:21:41.553Z,7.97
2017-10-09T21:24:09.017Z,7.40
2017-10-09T21:26:36.501Z,7.27
2017-10-09T21:29:03.961Z,7.43
2017-10-09T21:31:31.438Z,7.77
2017-10-09T21:33:58.902Z,7.23
2017-10-09T21:36:26.378Z,7.80
2017-10-09T21:38:53.835Z,7.33
2017-10-09T21:41:21.345Z,6.90
2017-10-09T21:43:48.864Z,7.73
2017-10-09T21:46:16.329Z,6.80
2017-10-09T21:48:43.818Z,7.33
2017-10-09T21:51:11.269Z,8.47
2017-10-09T21:53:38.751Z,7.50
2017-10-09T21:56:06.242Z,9.23
2017-10-09T21:58:33.710Z,7.90
2017-10-09T22:01:01.161Z,8.17
2017-10-09T22:03:28.634Z,7.57
2017-10-09T22:05:56.141Z,7.17
2017-10-09T22:08:23.597Z,7.83
2017-10-09T22:10:51.072Z,7.33
2017-10-09T22:13:18.522Z,7.87
2017-10-09T22:15:46.015Z,7.00
2017-10-09T22:18:13.468Z,7.20
2017-10-09T22:20:40.965Z,6.90
2017-10-09T22:23:08.433Z,7.87
2017-10-09T22:25:35.922Z,7.90
2017-10-09T22:28:03.397Z,7.13
2017-10-09T22:30:30.890Z,6.67
2017-10-09T22:32:58.857Z,7.13
2017-10-09T22:35:26.333Z,7.17
2017-10-09T22:37:53.834Z,8.43
2017-10-09T22:40:21.865Z,7.83
2017-10-09T22:42:49.325Z,7.27
2017-10-09T22:45:16.787Z,7.47
2017-10-09T22:47:44.264Z,7.13
2017-10-09T22:50:11.721Z,8.10
2017-10-09T22:52:39.205Z,6.80
2017-10-09T22:55:06.658Z,7.97
2017-10-09T22:57:34.142Z,7.53
2017-10-09T23:00:01.594Z,8.30
2017-10-09T23:02:29.074Z,6.80
2017-10-09T23:04:56.543Z,8.00
2017-10-09T23:07:24.091Z,6.90
2017-10-09T23:09:51.585Z,7.17
2017-10-09T23:12:19.060Z,7.23
2017-10-09T23:14:46.537Z,7.73
2017-10-09T23:17:13.980Z,7.50
2017-10-09T23:19:41.469Z,7.23
2017-10-09T23:22:08.929Z,7.03
2017-10-09T23:24:36.413Z,7.60
2017-10-09T23:27:03.857Z,7.00
2017-10-09T23:29:31.334Z,7.70
2017-10-09T23:31:58.784Z,7.70
2017-10-09T23:34:26.269Z,7.90
2017-10-09T23:36:53.795Z,7.30
2017-10-09T23:39:21.327Z,7.93
2017-10-09T23:41:48.798Z,7.40
2017-10-09T23:44:16.245Z,7.60
2017-10-09T23:46:43.742Z,6.90
2017-10-09T23:49:11.211Z,7.37
2017-10-09T23:51:38.693Z,7.47
2017-10-09T23:54:06.154Z,7.40
2017-10-09T23:56:33.638Z,7.37
2017-10-09T23:59:01.097Z,7.57
